sensor_id;sensor_type;location;lat;lon;timestamp;P1;durP1;ratioP1;P2;durP2;ratioP2
31836;SDS011;18401;49.344;6.240;2023-04-01T00:00:55;5.95;;;1.17;;
31836;SDS011;18401;49.344;6.240;2023-04-01T00:03:22;4.70;;;1.20;;
31836;SDS011;18401;49.344;6.240;2023-04-01T00:05:49;13.10;;;1.65;;
31836;SDS011;18401;49.344;6.240;2023-04-01T00:08:15;10.23;;;1.65;;
31836;SDS011;18401;49.344;6.240;2023-04-01T00:10:41;7.40;;;1.15;;
31836;SDS011;18401;49.344;6.240;2023-04-01T00:13:06;3.15;;;0.98;;
31836;SDS011;18401;49.344;6.240;2023-04-01T00:15:33;9.73;;;1.13;;
31836;SDS011;18401;49.344;6.240;2023-04-01T00:17:58;7.80;;;1.40;;
31836;SDS011;18401;49.344;6.240;2023-04-01T00:20:25;7.43;;;1.30;;
31836;SDS011;18401;49.344;6.240;2023-04-01T00:22:51;6.30;;;1.02;;
31836;SDS011;18401;49.344;6.240;2023-04-01T00:25:16;6.50;;;1.27;;
31836;SDS011;18401;49.344;6.240;2023-04-01T00:27:42;9.50;;;1.65;;
31836;SDS011;18401;49.344;6.240;2023-04-01T00:30:08;9.38;;;1.60;;
31836;SDS011;18401;49.344;6.240;2023-04-01T00:32:34;10.75;;;1.65;;
31836;SDS011;18401;49.344;6.240;2023-04-01T00:35:00;4.38;;;1.15;;
31836;SDS011;18401;49.344;6.240;2023-04-01T00:37:27;7.10;;;1.20;;
31836;SDS011;18401;49.344;6.240;2023-04-01T00:39:53;11.65;;;1.60;;
31836;SDS011;18401;49.344;6.240;2023-04-01T00:42:19;8.90;;;1.48;;
31836;SDS011;18401;49.344;6.240;2023-04-01T00:44:47;7.32;;;1.50;;
31836;SDS011;18401;49.344;6.240;2023-04-01T00:47:16;10.43;;;1.25;;
31836;SDS011;18401;49.344;6.240;2023-04-01T00:49:44;4.03;;;1.13;;
31836;SDS011;18401;49.344;6.240;2023-04-01T00:52:14;10.75;;;1.40;;
31836;SDS011;18401;49.344;6.240;2023-04-01T00:54:44;7.72;;;1.30;;
31836;SDS011;18401;49.344;6.240;2023-04-01T00:57:13;7.03;;;1.00;;
31836;SDS011;18401;49.344;6.240;2023-04-01T00:59:44;9.20;;;1.55;;
31836;SDS011;18401;49.344;6.240;2023-04-01T01:02:13;6.80;;;1.42;;
31836;SDS011;18401;49.344;6.240;2023-04-01T01:04:39;8.25;;;1.65;;
31836;SDS011;18401;49.344;6.240;2023-04-01T01:10:23;6.53;;;1.15;;
31836;SDS011;18401;49.344;6.240;2023-04-01T01:26:34;7.72;;;1.30;;
31836;SDS011;18401;49.344;6.240;2023-04-01T01:37:21;8.52;;;1.75;;
31836;SDS011;18401;49.344;6.240;2023-04-01T01:39:54;7.68;;;1.30;;
31836;SDS011;18401;49.344;6.240;2023-04-01T01:42:23;7.90;;;1.63;;
31836;SDS011;18401;49.344;6.240;2023-04-01T01:44:51;11.68;;;1.27;;
31836;SDS011;18401;49.344;6.240;2023-04-01T01:47:18;9.77;;;1.92;;
31836;SDS011;18401;49.344;6.240;2023-04-01T01:49:45;11.82;;;1.50;;
31836;SDS011;18401;49.344;6.240;2023-04-01T01:52:12;13.43;;;1.63;;
31836;SDS011;18401;49.344;6.240;2023-04-01T01:54:54;9.57;;;1.50;;
31836;SDS011;18401;49.344;6.240;2023-04-01T01:57:28;10.90;;;1.50;;
31836;SDS011;18401;49.344;6.240;2023-04-01T02:00:02;10.93;;;1.33;;
31836;SDS011;18401;49.344;6.240;2023-04-01T02:02:38;12.82;;;1.40;;
31836;SDS011;18401;49.344;6.240;2023-04-01T02:05:06;7.38;;;1.33;;
31836;SDS011;18401;49.344;6.240;2023-04-01T02:07:35;6.05;;;1.15;;
31836;SDS011;18401;49.344;6.240;2023-04-01T02:10:03;9.85;;;1.25;;
31836;SDS011;18401;49.344;6.240;2023-04-01T02:12:29;6.90;;;1.05;;
31836;SDS011;18401;49.344;6.240;2023-04-01T02:15:05;7.50;;;1.65;;
31836;SDS011;18401;49.344;6.240;2023-04-01T02:17:34;7.57;;;1.23;;
31836;SDS011;18401;49.344;6.240;2023-04-01T02:20:06;12.38;;;1.60;;
31836;SDS011;18401;49.344;6.240;2023-04-01T02:22:53;5.85;;;1.10;;
31836;SDS011;18401;49.344;6.240;2023-04-01T02:25:22;8.80;;;1.50;;
31836;SDS011;18401;49.344;6.240;2023-04-01T02:27:51;9.63;;;1.80;;
31836;SDS011;18401;49.344;6.240;2023-04-01T02:30:18;8.88;;;1.33;;
31836;SDS011;18401;49.344;6.240;2023-04-01T02:32:45;12.73;;;1.25;;
31836;SDS011;18401;49.344;6.240;2023-04-01T02:35:12;12.32;;;1.30;;
31836;SDS011;18401;49.344;6.240;2023-04-01T02:37:40;8.65;;;1.30;;
31836;SDS011;18401;49.344;6.240;2023-04-01T02:40:08;4.50;;;1.25;;
31836;SDS011;18401;49.344;6.240;2023-04-01T02:42:38;9.60;;;1.13;;
31836;SDS011;18401;49.344;6.240;2023-04-01T02:45:04;5.13;;;1.13;;
31836;SDS011;18401;49.344;6.240;2023-04-01T02:47:31;9.40;;;1.45;;
31836;SDS011;18401;49.344;6.240;2023-04-01T02:49:57;7.18;;;1.40;;
31836;SDS011;18401;49.344;6.240;2023-04-01T02:52:27;7.88;;;1.25;;
31836;SDS011;18401;49.344;6.240;2023-04-01T02:54:54;7.55;;;1.02;;
31836;SDS011;18401;49.344;6.240;2023-04-01T02:57:21;9.05;;;1.80;;
31836;SDS011;18401;49.344;6.240;2023-04-01T02:59:47;6.43;;;1.17;;
31836;SDS011;18401;49.344;6.240;2023-04-01T03:02:13;5.97;;;1.02;;
31836;SDS011;18401;49.344;6.240;2023-04-01T03:04:39;6.63;;;1.38;;
31836;SDS011;18401;49.344;6.240;2023-04-01T03:07:05;8.80;;;1.48;;
31836;SDS011;18401;49.344;6.240;2023-04-01T03:09:30;8.02;;;1.30;;
31836;SDS011;18401;49.344;6.240;2023-04-01T03:11:56;5.30;;;1.15;;
31836;SDS011;18401;49.344;6.240;2023-04-01T03:14:22;5.32;;;1.70;;
31836;SDS011;18401;49.344;6.240;2023-04-01T03:16:47;2.67;;;0.95;;
31836;SDS011;18401;49.344;6.240;2023-04-01T03:19:13;7.32;;;1.92;;
31836;SDS011;18401;49.344;6.240;2023-04-01T03:21:39;5.90;;;1.30;;
31836;SDS011;18401;49.344;6.240;2023-04-01T03:24:05;14.15;;;1.38;;
31836;SDS011;18401;49.344;6.240;2023-04-01T03:26:32;6.38;;;1.35;;
31836;SDS011;18401;49.344;6.240;2023-04-01T03:28:58;8.88;;;1.20;;
31836;SDS011;18401;49.344;6.240;2023-04-01T03:31:23;4.15;;;1.02;;
31836;SDS011;18401;49.344;6.240;2023-04-01T03:33:49;7.78;;;1.42;;
31836;SDS011;18401;49.344;6.240;2023-04-01T03:36:15;4.45;;;1.00;;
31836;SDS011;18401;49.344;6.240;2023-04-01T03:38:41;4.45;;;1.15;;
31836;SDS011;18401;49.344;6.240;2023-04-01T03:41:07;7.82;;;1.23;;
31836;SDS011;18401;49.344;6.240;2023-04-01T03:43:37;4.45;;;1.00;;
31836;SDS011;18401;49.344;6.240;2023-04-01T03:46:03;4.95;;;1.00;;
31836;SDS011;18401;49.344;6.240;2023-04-01T03:48:28;11.38;;;1.10;;
31836;SDS011;18401;49.344;6.240;2023-04-01T03:50:54;4.45;;;1.00;;
31836;SDS011;18401;49.344;6.240;2023-04-01T03:53:20;8.52;;;1.38;;
31836;SDS011;18401;49.344;6.240;2023-04-01T03:55:47;9.98;;;1.42;;
31836;SDS011;18401;49.344;6.240;2023-04-01T03:58:13;3.70;;;1.20;;
31836;SDS011;18401;49.344;6.240;2023-04-01T04:00:39;13.48;;;1.30;;
31836;SDS011;18401;49.344;6.240;2023-04-01T04:03:05;4.43;;;0.95;;
31836;SDS011;18401;49.344;6.240;2023-04-01T04:05:32;14.25;;;1.50;;
31836;SDS011;18401;49.344;6.240;2023-04-01T04:07:58;8.10;;;1.27;;
31836;SDS011;18401;49.344;6.240;2023-04-01T04:10:24;4.40;;;1.20;;
31836;SDS011;18401;49.344;6.240;2023-04-01T04:12:50;3.55;;;1.00;;
31836;SDS011;18401;49.344;6.240;2023-04-01T04:15:16;5.18;;;1.23;;
31836;SDS011;18401;49.344;6.240;2023-04-01T04:17:42;8.65;;;1.13;;
31836;SDS011;18401;49.344;6.240;2023-04-01T04:20:09;15.32;;;1.80;;
31836;SDS011;18401;49.344;6.240;2023-04-01T04:22:36;8.00;;;1.38;;
31836;SDS011;18401;49.344;6.240;2023-04-01T04:25:01;9.05;;;1.17;;
31836;SDS011;18401;49.344;6.240;2023-04-01T04:27:27;8.00;;;1.08;;
31836;SDS011;18401;49.344;6.240;2023-04-01T04:29:53;8.57;;;1.17;;
31836;SDS011;18401;49.344;6.240;2023-04-01T04:32:19;2.40;;;0.85;;
31836;SDS011;18401;49.344;6.240;2023-04-01T04:34:44;10.10;;;0.93;;
31836;SDS011;18401;49.344;6.240;2023-04-01T04:37:10;9.80;;;1.52;;
31836;SDS011;18401;49.344;6.240;2023-04-01T04:39:36;11.30;;;1.45;;
31836;SDS011;18401;49.344;6.240;2023-04-01T04:42:02;7.72;;;0.90;;
31836;SDS011;18401;49.344;6.240;2023-04-01T04:44:28;6.25;;;0.93;;
31836;SDS011;18401;49.344;6.240;2023-04-01T04:46:53;6.55;;;0.98;;
31836;SDS011;18401;49.344;6.240;2023-04-01T04:49:19;4.80;;;0.88;;
31836;SDS011;18401;49.344;6.240;2023-04-01T04:51:45;5.15;;;1.30;;
31836;SDS011;18401;49.344;6.240;2023-04-01T04:54:11;10.07;;;1.10;;
31836;SDS011;18401;49.344;6.240;2023-04-01T04:56:36;6.90;;;1.15;;
31836;SDS011;18401;49.344;6.240;2023-04-01T04:59:02;2.08;;;0.75;;
31836;SDS011;18401;49.344;6.240;2023-04-01T05:01:28;7.38;;;0.82;;
31836;SDS011;18401;49.344;6.240;2023-04-01T05:03:53;4.57;;;1.05;;
31836;SDS011;18401;49.344;6.240;2023-04-01T05:06:19;1.92;;;0.82;;
31836;SDS011;18401;49.344;6.240;2023-04-01T05:08:45;1.65;;;0.80;;
31836;SDS011;18401;49.344;6.240;2023-04-01T05:11:16;6.07;;;1.00;;
31836;SDS011;18401;49.344;6.240;2023-04-01T05:13:43;3.65;;;0.90;;
31836;SDS011;18401;49.344;6.240;2023-04-01T05:16:10;3.60;;;0.95;;
31836;SDS011;18401;49.344;6.240;2023-04-01T05:18:38;4.28;;;1.00;;
31836;SDS011;18401;49.344;6.240;2023-04-01T05:21:04;4.55;;;0.77;;
31836;SDS011;18401;49.344;6.240;2023-04-01T05:23:32;4.75;;;1.10;;
31836;SDS011;18401;49.344;6.240;2023-04-01T05:25:58;2.50;;;0.93;;
31836;SDS011;18401;49.344;6.240;2023-04-01T05:28:27;3.13;;;1.20;;
31836;SDS011;18401;49.344;6.240;2023-04-01T05:30:52;5.00;;;0.90;;
31836;SDS011;18401;49.344;6.240;2023-04-01T05:33:18;3.58;;;0.98;;
31836;SDS011;18401;49.344;6.240;2023-04-01T05:35:44;1.70;;;0.70;;
31836;SDS011;18401;49.344;6.240;2023-04-01T05:38:09;1.92;;;0.73;;
31836;SDS011;18401;49.344;6.240;2023-04-01T05:40:35;1.35;;;0.75;;
31836;SDS011;18401;49.344;6.240;2023-04-01T05:43:01;2.10;;;0.70;;
31836;SDS011;18401;49.344;6.240;2023-04-01T05:45:27;1.20;;;0.65;;
31836;SDS011;18401;49.344;6.240;2023-04-01T05:47:53;1.75;;;0.73;;
31836;SDS011;18401;49.344;6.240;2023-04-01T05:50:18;4.20;;;0.82;;
31836;SDS011;18401;49.344;6.240;2023-04-01T05:52:45;2.38;;;0.68;;
31836;SDS011;18401;49.344;6.240;2023-04-01T05:55:11;0.60;;;0.60;;
31836;SDS011;18401;49.344;6.240;2023-04-01T05:57:37;3.58;;;1.20;;
31836;SDS011;18401;49.344;6.240;2023-04-01T06:00:03;6.53;;;1.15;;
31836;SDS011;18401;49.344;6.240;2023-04-01T06:02:29;3.15;;;0.93;;
31836;SDS011;18401;49.344;6.240;2023-04-01T06:05:03;2.13;;;0.60;;
31836;SDS011;18401;49.344;6.240;2023-04-01T06:07:36;4.68;;;0.60;;
31836;SDS011;18401;49.344;6.240;2023-04-01T06:10:05;2.00;;;0.50;;
31836;SDS011;18401;49.344;6.240;2023-04-01T06:15:25;0.82;;;0.40;;
31836;SDS011;18401;49.344;6.240;2023-04-01T06:26:08;1.33;;;0.50;;
31836;SDS011;18401;49.344;6.240;2023-04-01T06:28:44;1.08;;;0.50;;
31836;SDS011;18401;49.344;6.240;2023-04-01T06:44:55;0.57;;;0.47;;
31836;SDS011;18401;49.344;6.240;2023-04-01T06:55:29;0.30;;;0.30;;
31836;SDS011;18401;49.344;6.240;2023-04-01T06:58:06;1.33;;;0.40;;
31836;SDS011;18401;49.344;6.240;2023-04-01T07:00:44;0.32;;;0.32;;
31836;SDS011;18401;49.344;6.240;2023-04-01T07:03:21;1.02;;;0.45;;
31836;SDS011;18401;49.344;6.240;2023-04-01T07:06:16;2.28;;;0.60;;
31836;SDS011;18401;49.344;6.240;2023-04-01T07:09:02;2.50;;;0.73;;
31836;SDS011;18401;49.344;6.240;2023-04-01T07:11:34;1.75;;;0.40;;
31836;SDS011;18401;49.344;6.240;2023-04-01T07:14:03;0.75;;;0.75;;
31836;SDS011;18401;49.344;6.240;2023-04-01T07:16:44;0.65;;;0.40;;
31836;SDS011;18401;49.344;6.240;2023-04-01T07:19:19;2.25;;;0.60;;
31836;SDS011;18401;49.344;6.240;2023-04-01T07:22:09;1.98;;;0.30;;
31836;SDS011;18401;49.344;6.240;2023-04-01T07:24:51;1.75;;;0.40;;
31836;SDS011;18401;49.344;6.240;2023-04-01T07:27:19;1.95;;;0.30;;
31836;SDS011;18401;49.344;6.240;2023-04-01T07:29:44;0.73;;;0.50;;
31836;SDS011;18401;49.344;6.240;2023-04-01T07:32:21;0.40;;;0.40;;
31836;SDS011;18401;49.344;6.240;2023-04-01T07:35:02;1.45;;;0.52;;
31836;SDS011;18401;49.344;6.240;2023-04-01T07:37:46;0.88;;;0.40;;
31836;SDS011;18401;49.344;6.240;2023-04-01T07:45:46;1.75;;;0.30;;
31836;SDS011;18401;49.344;6.240;2023-04-01T07:48:41;0.43;;;0.43;;
31836;SDS011;18401;49.344;6.240;2023-04-01T07:51:18;0.43;;;0.43;;
31836;SDS011;18401;49.344;6.240;2023-04-01T07:53:48;1.00;;;0.70;;
31836;SDS011;18401;49.344;6.240;2023-04-01T07:56:35;1.02;;;0.47;;
31836;SDS011;18401;49.344;6.240;2023-04-01T08:07:47;2.50;;;0.50;;
31836;SDS011;18401;49.344;6.240;2023-04-01T08:12:55;0.85;;;0.50;;
31836;SDS011;18401;49.344;6.240;2023-04-01T08:15:47;0.40;;;0.40;;
31836;SDS011;18401;49.344;6.240;2023-04-01T08:19:17;2.55;;;1.05;;
31836;SDS011;18401;49.344;6.240;2023-04-01T08:21:28;1.15;;;0.60;;
31836;SDS011;18401;49.344;6.240;2023-04-01T08:24:17;1.25;;;0.68;;
31836;SDS011;18401;49.344;6.240;2023-04-01T08:26:59;0.52;;;0.50;;
31836;SDS011;18401;49.344;6.240;2023-04-01T08:29:34;2.08;;;0.50;;
31836;SDS011;18401;49.344;6.240;2023-04-01T08:32:12;0.40;;;0.40;;
31836;SDS011;18401;49.344;6.240;2023-04-01T08:34:45;0.85;;;0.65;;
31836;SDS011;18401;49.344;6.240;2023-04-01T08:37:18;0.85;;;0.47;;
31836;SDS011;18401;49.344;6.240;2023-04-01T08:39:54;2.08;;;0.47;;
31836;SDS011;18401;49.344;6.240;2023-04-01T08:53:09;0.98;;;0.80;;
31836;SDS011;18401;49.344;6.240;2023-04-01T09:10:02;2.47;;;0.52;;
31836;SDS011;18401;49.344;6.240;2023-04-01T09:20:54;0.85;;;0.80;;
31836;SDS011;18401;49.344;6.240;2023-04-01T09:34:55;2.03;;;0.60;;
31836;SDS011;18401;49.344;6.240;2023-04-01T09:40:17;1.95;;;0.52;;
31836;SDS011;18401;49.344;6.240;2023-04-01T09:42:53;2.30;;;0.50;;
31836;SDS011;18401;49.344;6.240;2023-04-01T09:50:52;2.25;;;0.63;;
31836;SDS011;18401;49.344;6.240;2023-04-01T09:59:16;0.50;;;0.50;;
31836;SDS011;18401;49.344;6.240;2023-04-01T10:05:01;2.25;;;0.50;;
31836;SDS011;18401;49.344;6.240;2023-04-01T10:07:48;0.55;;;0.52;;
31836;SDS011;18401;49.344;6.240;2023-04-01T10:21:47;3.10;;;0.75;;
31836;SDS011;18401;49.344;6.240;2023-04-01T10:24:45;0.60;;;0.60;;
31836;SDS011;18401;49.344;6.240;2023-04-01T10:30:38;2.35;;;0.60;;
31836;SDS011;18401;49.344;6.240;2023-04-01T10:38:47;0.77;;;0.60;;
31836;SDS011;18401;49.344;6.240;2023-04-01T10:44:47;0.63;;;0.63;;
31836;SDS011;18401;49.344;6.240;2023-04-01T10:56:07;1.70;;;0.50;;
31836;SDS011;18401;49.344;6.240;2023-04-01T11:07:22;0.85;;;0.60;;
31836;SDS011;18401;49.344;6.240;2023-04-01T11:25:00;0.98;;;0.60;;
31836;SDS011;18401;49.344;6.240;2023-04-01T11:33:19;0.85;;;0.70;;
31836;SDS011;18401;49.344;6.240;2023-04-01T11:36:15;3.70;;;0.70;;
31836;SDS011;18401;49.344;6.240;2023-04-01T11:39:14;2.40;;;0.77;;
31836;SDS011;18401;49.344;6.240;2023-04-01T11:45:03;2.70;;;0.90;;
31836;SDS011;18401;49.344;6.240;2023-04-01T11:53:00;2.95;;;0.77;;
31836;SDS011;18401;49.344;6.240;2023-04-01T12:01:29;2.85;;;0.70;;
31836;SDS011;18401;49.344;6.240;2023-04-01T12:32:25;2.08;;;0.52;;
31836;SDS011;18401;49.344;6.240;2023-04-01T12:35:20;2.33;;;0.77;;
31836;SDS011;18401;49.344;6.240;2023-04-01T12:37:54;0.70;;;0.60;;
31836;SDS011;18401;49.344;6.240;2023-04-01T12:46:25;1.95;;;0.70;;
31836;SDS011;18401;49.344;6.240;2023-04-01T12:52:31;1.42;;;0.70;;
31836;SDS011;18401;49.344;6.240;2023-04-01T13:16:39;1.50;;;0.90;;
31836;SDS011;18401;49.344;6.240;2023-04-01T13:21:54;2.60;;;1.00;;
31836;SDS011;18401;49.344;6.240;2023-04-01T13:24:49;2.25;;;1.02;;
31836;SDS011;18401;49.344;6.240;2023-04-01T13:46:17;0.73;;;0.60;;
31836;SDS011;18401;49.344;6.240;2023-04-01T13:49:19;0.82;;;0.70;;
31836;SDS011;18401;49.344;6.240;2023-04-01T13:57:42;1.63;;;0.77;;
31836;SDS011;18401;49.344;6.240;2023-04-01T14:08:51;1.83;;;0.80;;
31836;SDS011;18401;49.344;6.240;2023-04-01T14:30:51;5.93;;;0.70;;
31836;SDS011;18401;49.344;6.240;2023-04-01T14:39:12;2.92;;;0.50;;
31836;SDS011;18401;49.344;6.240;2023-04-01T14:47:44;1.13;;;0.52;;
31836;SDS011;18401;49.344;6.240;2023-04-01T14:50:14;3.05;;;0.68;;
31836;SDS011;18401;49.344;6.240;2023-04-01T14:52:48;2.45;;;0.70;;
31836;SDS011;18401;49.344;6.240;2023-04-01T14:55:31;1.40;;;0.57;;
31836;SDS011;18401;49.344;6.240;2023-04-01T14:58:08;1.75;;;0.60;;
31836;SDS011;18401;49.344;6.240;2023-04-01T15:00:41;1.75;;;0.63;;
31836;SDS011;18401;49.344;6.240;2023-04-01T15:11:49;0.45;;;0.45;;
31836;SDS011;18401;49.344;6.240;2023-04-01T15:14:21;0.50;;;0.50;;
31836;SDS011;18401;49.344;6.240;2023-04-01T15:22:47;0.50;;;0.50;;
31836;SDS011;18401;49.344;6.240;2023-04-01T15:25:30;2.13;;;0.52;;
31836;SDS011;18401;49.344;6.240;2023-04-01T15:28:31;1.25;;;0.47;;
31836;SDS011;18401;49.344;6.240;2023-04-01T15:48:23;0.70;;;0.45;;
31836;SDS011;18401;49.344;6.240;2023-04-01T15:50:54;2.00;;;0.60;;
31836;SDS011;18401;49.344;6.240;2023-04-01T15:53:30;0.63;;;0.50;;
31836;SDS011;18401;49.344;6.240;2023-04-01T16:04:24;0.50;;;0.40;;
31836;SDS011;18401;49.344;6.240;2023-04-01T16:07:18;1.17;;;0.40;;
31836;SDS011;18401;49.344;6.240;2023-04-01T16:15:56;1.38;;;0.60;;
31836;SDS011;18401;49.344;6.240;2023-04-01T16:23:58;0.52;;;0.52;;
31836;SDS011;18401;49.344;6.240;2023-04-01T16:32:07;1.40;;;0.60;;
31836;SDS011;18401;49.344;6.240;2023-04-01T16:35:00;0.83;;;0.60;;
31836;SDS011;18401;49.344;6.240;2023-04-01T16:37:55;1.98;;;0.50;;
31836;SDS011;18401;49.344;6.240;2023-04-01T16:40:45;4.33;;;0.70;;
31836;SDS011;18401;49.344;6.240;2023-04-01T16:51:22;0.63;;;0.63;;
31836;SDS011;18401;49.344;6.240;2023-04-01T16:56:42;2.20;;;0.80;;
31836;SDS011;18401;49.344;6.240;2023-04-01T17:07:10;0.45;;;0.45;;
31836;SDS011;18401;49.344;6.240;2023-04-01T17:09:47;2.08;;;0.60;;
31836;SDS011;18401;49.344;6.240;2023-04-01T17:12:38;1.58;;;0.50;;
31836;SDS011;18401;49.344;6.240;2023-04-01T17:15:29;4.60;;;0.77;;
31836;SDS011;18401;49.344;6.240;2023-04-01T17:21:21;0.75;;;0.50;;
31836;SDS011;18401;49.344;6.240;2023-04-01T17:35:26;1.25;;;0.60;;
31836;SDS011;18401;49.344;6.240;2023-04-01T17:41:07;1.77;;;0.50;;
31836;SDS011;18401;49.344;6.240;2023-04-01T17:49:19;2.80;;;0.68;;
31836;SDS011;18401;49.344;6.240;2023-04-01T18:03:20;2.10;;;0.73;;
31836;SDS011;18401;49.344;6.240;2023-04-01T18:06:03;1.95;;;0.77;;
31836;SDS011;18401;49.344;6.240;2023-04-01T18:11:25;2.00;;;0.73;;
31836;SDS011;18401;49.344;6.240;2023-04-01T18:17:12;3.80;;;0.98;;
31836;SDS011;18401;49.344;6.240;2023-04-01T18:19:49;1.40;;;0.60;;
31836;SDS011;18401;49.344;6.240;2023-04-01T18:22:29;1.45;;;0.60;;
31836;SDS011;18401;49.344;6.240;2023-04-01T18:25:14;1.33;;;0.90;;
31836;SDS011;18401;49.344;6.240;2023-04-01T18:30:37;4.40;;;2.33;;
31836;SDS011;18401;49.344;6.240;2023-04-01T18:33:29;0.68;;;0.68;;
31836;SDS011;18401;49.344;6.240;2023-04-01T18:38:35;2.15;;;0.85;;
31836;SDS011;18401;49.344;6.240;2023-04-01T18:52:36;3.38;;;0.60;;
31836;SDS011;18401;49.344;6.240;2023-04-01T18:55:39;1.00;;;0.65;;
31836;SDS011;18401;49.344;6.240;2023-04-01T19:01:02;6.25;;;0.90;;
31836;SDS011;18401;49.344;6.240;2023-04-01T19:08:47;1.30;;;0.90;;
31836;SDS011;18401;49.344;6.240;2023-04-01T19:14:25;2.63;;;1.10;;
31836;SDS011;18401;49.344;6.240;2023-04-01T19:17:30;1.38;;;0.90;;
31836;SDS011;18401;49.344;6.240;2023-04-01T19:26:00;2.63;;;0.98;;
31836;SDS011;18401;49.344;6.240;2023-04-01T19:28:50;2.60;;;1.05;;
31836;SDS011;18401;49.344;6.240;2023-04-01T19:31:55;1.00;;;0.90;;
31836;SDS011;18401;49.344;6.240;2023-04-01T19:40:10;2.60;;;1.05;;
31836;SDS011;18401;49.344;6.240;2023-04-01T19:54:21;2.58;;;1.35;;
31836;SDS011;18401;49.344;6.240;2023-04-01T19:57:05;1.88;;;1.17;;
31836;SDS011;18401;49.344;6.240;2023-04-01T20:04:58;2.15;;;1.00;;
31836;SDS011;18401;49.344;6.240;2023-04-01T20:07:41;2.00;;;1.20;;
31836;SDS011;18401;49.344;6.240;2023-04-01T20:10:20;1.02;;;0.93;;
31836;SDS011;18401;49.344;6.240;2023-04-01T20:15:37;1.10;;;1.00;;
31836;SDS011;18401;49.344;6.240;2023-04-01T20:23:45;3.90;;;1.27;;
31836;SDS011;18401;49.344;6.240;2023-04-01T20:26:19;1.13;;;1.02;;
31836;SDS011;18401;49.344;6.240;2023-04-01T20:45:58;5.00;;;2.03;;
31836;SDS011;18401;49.344;6.240;2023-04-01T20:51:30;3.97;;;2.20;;
31836;SDS011;18401;49.344;6.240;2023-04-01T21:02:12;7.65;;;1.73;;
31836;SDS011;18401;49.344;6.240;2023-04-01T21:07:41;2.55;;;1.55;;
31836;SDS011;18401;49.344;6.240;2023-04-01T21:16:13;4.50;;;1.70;;
31836;SDS011;18401;49.344;6.240;2023-04-01T21:21:46;4.50;;;1.83;;
31836;SDS011;18401;49.344;6.240;2023-04-01T21:38:14;4.25;;;1.15;;
31836;SDS011;18401;49.344;6.240;2023-04-01T21:44:10;1.95;;;1.80;;
31836;SDS011;18401;49.344;6.240;2023-04-01T21:49:45;6.03;;;1.70;;
31836;SDS011;18401;49.344;6.240;2023-04-01T22:01:22;5.07;;;2.10;;
31836;SDS011;18401;49.344;6.240;2023-04-01T22:04:14;1.83;;;1.73;;
31836;SDS011;18401;49.344;6.240;2023-04-01T22:06:51;5.65;;;2.17;;
31836;SDS011;18401;49.344;6.240;2023-04-01T22:09:31;4.03;;;2.10;;
31836;SDS011;18401;49.344;6.240;2023-04-01T22:12:57;4.15;;;2.00;;
31836;SDS011;18401;49.344;6.240;2023-04-01T22:18:17;2.13;;;1.95;;
31836;SDS011;18401;49.344;6.240;2023-04-01T22:26:38;2.40;;;2.08;;
31836;SDS011;18401;49.344;6.240;2023-04-01T22:29:23;3.10;;;1.90;;
31836;SDS011;18401;49.344;6.240;2023-04-01T22:34:49;2.70;;;2.13;;
31836;SDS011;18401;49.344;6.240;2023-04-01T22:45:25;2.65;;;1.92;;
31836;SDS011;18401;49.344;6.240;2023-04-01T22:50:51;4.38;;;2.00;;
31836;SDS011;18401;49.344;6.240;2023-04-01T22:56:20;2.60;;;2.30;;
31836;SDS011;18401;49.344;6.240;2023-04-01T22:59:06;3.28;;;2.20;;
31836;SDS011;18401;49.344;6.240;2023-04-01T23:01:40;3.80;;;2.63;;
31836;SDS011;18401;49.344;6.240;2023-04-01T23:04:15;4.28;;;2.50;;
31836;SDS011;18401;49.344;6.240;2023-04-01T23:06:49;3.42;;;2.60;;
31836;SDS011;18401;49.344;6.240;2023-04-01T23:09:22;2.83;;;2.30;;
31836;SDS011;18401;49.344;6.240;2023-04-01T23:12:02;2.97;;;2.20;;
31836;SDS011;18401;49.344;6.240;2023-04-01T23:14:34;1.92;;;1.80;;
31836;SDS011;18401;49.344;6.240;2023-04-01T23:20:02;4.90;;;2.13;;
31836;SDS011;18401;49.344;6.240;2023-04-01T23:25:24;2.33;;;2.08;;
31836;SDS011;18401;49.344;6.240;2023-04-01T23:27:55;3.40;;;1.98;;
31836;SDS011;18401;49.344;6.240;2023-04-01T23:33:15;3.25;;;2.42;;
31836;SDS011;18401;49.344;6.240;2023-04-01T23:38:16;2.20;;;2.00;;
31836;SDS011;18401;49.344;6.240;2023-04-01T23:40:42;2.60;;;2.00;;
31836;SDS011;18401;49.344;6.240;2023-04-01T23:43:15;2.50;;;2.30;;
31836;SDS011;18401;49.344;6.240;2023-04-01T23:45:48;6.25;;;2.42;;
31836;SDS011;18401;49.344;6.240;2023-04-01T23:48:14;2.75;;;2.10;;
31836;SDS011;18401;49.344;6.240;2023-04-01T23:50:42;3.33;;;2.40;;
31836;SDS011;18401;49.344;6.240;2023-04-01T23:53:55;3.08;;;1.95;;
31836;SDS011;18401;49.344;6.240;2023-04-01T23:55:59;3.00;;;2.22;;
31836;SDS011;18401;49.344;6.240;2023-04-01T23:58:48;2.40;;;2.00;;
